createdAt,value
2022-08-11T00:00:12.853Z,29.75
2022-08-11T00:05:19.279Z,29.81
2022-08-11T00:10:24.174Z,29.94
2022-08-11T00:15:29.440Z,30.13
2022-08-11T00:20:33.043Z,30.09
2022-08-11T00:25:41.040Z,30.28
2022-08-11T00:30:42.820Z,30.19
2022-08-11T00:35:54.047Z,30.28
2022-08-11T00:41:37.033Z,30.36
2022-08-11T00:46:57.690Z,30.51
2022-08-11T00:52:14.741Z,30.55
2022-08-11T00:57:38.787Z,30.65
2022-08-11T01:02:55.793Z,30.90
2022-08-11T01:08:34.879Z,30.53
2022-08-11T01:14:12.039Z,30.78
2022-08-11T01:19:19.682Z,30.80
2022-08-11T01:24:50.536Z,31.04
2022-08-11T01:30:19.447Z,30.68
2022-08-11T01:35:49.212Z,30.95
2022-08-11T01:41:22.031Z,30.92
2022-08-11T01:46:59.876Z,30.78
2022-08-11T01:52:30.400Z,31.11
2022-08-11T01:58:02.954Z,31.06
2022-08-11T02:03:06.930Z,31.34
2022-08-11T02:08:33.254Z,31.19
2022-08-11T02:14:12.690Z,31.45
2022-08-11T02:19:35.750Z,31.34
2022-08-11T02:24:49.776Z,31.67
2022-08-11T02:30:05.301Z,31.76
2022-08-11T02:35:19.936Z,31.31
2022-08-11T02:40:36.269Z,31.58
2022-08-11T02:45:54.919Z,31.59
2022-08-11T02:51:34.985Z,31.82
2022-08-11T02:56:53.095Z,31.87
2022-08-11T03:02:16.850Z,31.97
2022-08-11T03:07:35.165Z,31.93
2022-08-11T03:13:03.276Z,32.48
2022-08-11T03:18:17.129Z,32.39
2022-08-11T03:23:41.859Z,32.47
2022-08-11T03:29:01.286Z,32.47
2022-08-11T03:34:23.057Z,32.69
2022-08-11T03:39:56.708Z,32.57
2022-08-11T03:45:43.559Z,32.95
2022-08-11T03:50:55.724Z,33.13
2022-08-11T03:56:06.604Z,33.23
2022-08-11T04:01:29.579Z,33.41
2022-08-11T04:06:53.058Z,33.38
2022-08-11T04:12:14.855Z,33.27
2022-08-11T04:18:05.498Z,33.73
2022-08-11T04:24:12.822Z,33.44
2022-08-11T04:30:00.929Z,34.03
2022-08-11T04:35:30.701Z,34.13
2022-08-11T04:41:27.011Z,34.05
2022-08-11T04:46:44.929Z,34.34
2022-08-11T04:52:43.560Z,34.42
2022-08-11T04:58:04.160Z,34.60
2022-08-11T05:03:24.639Z,34.64
2022-08-11T05:09:04.058Z,34.62
2022-08-11T05:14:30.713Z,34.72
2022-08-11T05:19:51.417Z,34.90
2022-08-11T05:26:45.269Z,34.70
2022-08-11T05:31:06.650Z,34.86
2022-08-11T05:36:30.046Z,34.52
2022-08-11T05:41:50.913Z,34.82
2022-08-11T05:47:12.859Z,34.58
2022-08-11T05:52:46.836Z,34.75
2022-08-11T05:57:51.867Z,34.94
2022-08-11T06:02:56.931Z,34.88
2022-08-11T06:08:03.216Z,34.61
2022-08-11T06:13:07.478Z,34.75
2022-08-11T06:18:12.296Z,34.62
2022-08-11T06:23:18.803Z,34.80
2022-08-11T06:28:31.083Z,34.41
2022-08-11T06:33:59.896Z,34.65
2022-08-11T06:39:16.883Z,34.49
2022-08-11T06:44:53.259Z,34.60
2022-08-11T06:50:18.181Z,34.25
2022-08-11T06:55:57.727Z,34.42
2022-08-11T07:01:07.297Z,34.15
2022-08-11T07:06:18.699Z,34.28
2022-08-11T07:11:46.167Z,34.10
2022-08-11T07:16:50.862Z,34.08
2022-08-11T07:22:14.675Z,34.01
2022-08-11T07:27:39.125Z,34.07
2022-08-11T07:32:52.732Z,33.71
2022-08-11T07:38:01.549Z,33.68
2022-08-11T07:43:04.558Z,33.51
2022-08-11T07:48:26.773Z,33.34
2022-08-11T07:53:29.937Z,33.34
2022-08-11T07:58:53.375Z,33.03
2022-08-11T08:04:15.279Z,32.92
2022-08-11T08:09:38.003Z,32.77
2022-08-11T08:14:58.851Z,32.45
2022-08-11T08:20:03.926Z,32.25
2022-08-11T08:25:07.619Z,31.66
2022-08-11T08:30:28.498Z,31.39
2022-08-11T08:35:33.054Z,31.09
2022-08-11T08:40:35.144Z,31.02
2022-08-11T08:45:38.035Z,30.61
2022-08-11T08:51:04.395Z,30.38
2022-08-11T08:56:08.753Z,30.45
2022-08-11T09:01:11.832Z,30.26
2022-08-11T09:06:16.970Z,29.52
2022-08-11T09:11:41.901Z,29.22
2022-08-11T09:16:44.480Z,28.73
2022-08-11T09:22:09.976Z,28.64
2022-08-11T09:27:11.677Z,28.05
2022-08-11T09:32:14.985Z,27.89
2022-08-11T09:37:55.815Z,27.14
2022-08-11T09:43:16.798Z,27.20
2022-08-11T09:48:20.100Z,27.45
2022-08-11T09:53:35.873Z,27.07
2022-08-11T09:58:44.614Z,26.66
2022-08-11T10:03:47.615Z,26.83
2022-08-11T10:08:52.939Z,26.66
2022-08-11T10:14:33.712Z,26.38
2022-08-11T10:19:37.986Z,25.90
2022-08-11T10:25:01.093Z,26.17
2022-08-11T10:30:22.541Z,26.07
2022-08-11T10:35:30.800Z,25.97
2022-08-11T10:40:39.323Z,25.67
2022-08-11T10:46:04.152Z,25.43
2022-08-11T10:51:13.478Z,25.21
2022-08-11T10:56:34.086Z,25.03
2022-08-11T11:01:44.280Z,24.54
2022-08-11T11:06:50.706Z,23.98
2022-08-11T11:12:18.619Z,23.79
2022-08-11T11:17:50.587Z,23.54
2022-08-11T11:22:56.791Z,23.40
2022-08-11T11:28:38.258Z,23.28
2022-08-11T11:34:12.164Z,23.15
2022-08-11T11:39:19.485Z,22.22
2022-08-11T11:44:23.163Z,22.01
2022-08-11T11:49:28.752Z,21.20
2022-08-11T11:54:33.945Z,21.73
2022-08-11T11:59:54.739Z,21.26
2022-08-11T12:04:57.189Z,21.21
2022-08-11T12:09:59.924Z,20.59
2022-08-11T12:15:01.931Z,20.76
2022-08-11T12:20:05.285Z,20.26
2022-08-11T12:25:46.028Z,20.05
2022-08-11T12:30:50.700Z,19.45
2022-08-11T12:36:01.333Z,19.24
2022-08-11T12:41:22.902Z,19.11
2022-08-11T12:46:35.642Z,19.09
2022-08-11T12:52:13.865Z,18.51
2022-08-11T12:57:48.737Z,18.73
2022-08-11T13:03:10.315Z,18.59
2022-08-11T13:08:15.165Z,18.64
2022-08-11T13:13:52.852Z,18.76
2022-08-11T13:18:44.204Z,18.18
2022-08-11T13:24:01.143Z,17.98
2022-08-11T13:29:04.734Z,17.40
2022-08-11T13:34:08.422Z,16.96
2022-08-11T13:39:11.162Z,17.52
2022-08-11T13:44:21.544Z,17.55
2022-08-11T13:49:27.872Z,17.84
2022-08-11T13:54:36.512Z,17.34
2022-08-11T13:59:45.301Z,16.99
2022-08-11T14:05:02.966Z,17.30
2022-08-11T14:10:07.045Z,17.33
2022-08-11T14:15:25.095Z,17.58
2022-08-11T14:20:49.653Z,17.12
2022-08-11T14:26:09.957Z,16.82
2022-08-11T14:31:15.433Z,16.82
2022-08-11T14:36:17.665Z,17.32
2022-08-11T14:42:11.636Z,16.97
2022-08-11T14:47:23.901Z,16.88
2022-08-11T14:52:27.375Z,16.97
2022-08-11T14:57:54.433Z,17.26
2022-08-11T15:03:11.156Z,17.30
2022-08-11T15:08:16.609Z,16.91
2022-08-11T15:13:19.181Z,16.32
2022-08-11T15:18:24.298Z,15.85
2022-08-11T15:23:44.632Z,16.15
2022-08-11T15:29:11.030Z,16.19
2022-08-11T15:34:34.416Z,16.27
2022-08-11T15:40:01.800Z,16.16
2022-08-11T15:45:25.951Z,16.02
2022-08-11T15:50:32.755Z,16.13
2022-08-11T15:55:37.865Z,16.40
2022-08-11T16:01:04.337Z,16.22
2022-08-11T16:06:13.537Z,16.44
2022-08-11T16:11:16.173Z,16.54
2022-08-11T16:16:18.818Z,16.47
2022-08-11T16:21:26.789Z,16.57
2022-08-11T16:27:08.419Z,16.62
2022-08-11T16:32:17.927Z,16.72
2022-08-11T16:37:41.883Z,16.57
2022-08-11T16:43:10.792Z,16.92
2022-08-11T16:48:34.998Z,16.79
2022-08-11T16:54:03.413Z,16.62
2022-08-11T16:59:18.285Z,16.70
2022-08-11T17:04:57.127Z,16.71
2022-08-11T17:10:39.664Z,16.61
2022-08-11T17:16:09.097Z,16.58
2022-08-11T17:21:21.605Z,16.59
2022-08-11T17:26:27.757Z,16.87
2022-08-11T17:31:49.015Z,16.82
2022-08-11T17:36:53.601Z,17.06
2022-08-11T17:42:14.974Z,17.06
2022-08-11T17:47:36.828Z,17.12
2022-08-11T17:53:00.961Z,17.51
2022-08-11T17:58:21.774Z,17.31
2022-08-11T18:03:32.870Z,17.46
2022-08-11T18:08:58.194Z,17.94
2022-08-11T18:14:23.002Z,18.22
2022-08-11T18:19:43.414Z,18.45
2022-08-11T18:25:19.881Z,18.76
2022-08-11T18:30:43.843Z,18.69
2022-08-11T18:36:13.564Z,18.90
2022-08-11T18:41:36.013Z,19.15
2022-08-11T18:47:00.869Z,19.26
2022-08-11T18:52:28.089Z,19.89
2022-08-11T18:57:52.086Z,20.04
2022-08-11T19:03:17.278Z,20.09
2022-08-11T19:08:40.122Z,20.37
2022-08-11T19:14:02.648Z,20.50
2022-08-11T19:19:23.611Z,20.92
2022-08-11T19:24:45.395Z,21.06
2022-08-11T19:30:13.441Z,21.03
2022-08-11T19:35:35.966Z,21.65
2022-08-11T19:40:57.257Z,21.53
2022-08-11T19:46:18.717Z,21.71
2022-08-11T19:51:40.102Z,21.96
2022-08-11T19:57:01.741Z,21.77
2022-08-11T20:02:22.182Z,22.14
2022-08-11T20:07:44.405Z,22.03
2022-08-11T20:13:05.433Z,22.40
2022-08-11T20:18:31.489Z,22.66
2022-08-11T20:23:52.498Z,22.52
2022-08-11T20:29:13.906Z,22.97
2022-08-11T20:34:36.368Z,22.97
2022-08-11T20:39:58.892Z,23.48
2022-08-11T20:45:23.445Z,23.36
2022-08-11T20:50:46.465Z,23.95
2022-08-11T20:56:07.647Z,23.79
2022-08-11T21:01:38.381Z,23.96
2022-08-11T21:07:00.703Z,24.58
2022-08-11T21:12:28.947Z,24.55
2022-08-11T21:18:00.349Z,24.51
2022-08-11T21:23:32.137Z,25.08
2022-08-11T21:28:58.819Z,24.91
2022-08-11T21:34:21.831Z,24.96
2022-08-11T21:39:43.694Z,25.37
2022-08-11T21:45:05.099Z,25.40
2022-08-11T21:50:25.750Z,25.69
2022-08-11T21:55:46.886Z,26.04
2022-08-11T22:01:07.770Z,26.10
2022-08-11T22:06:28.258Z,25.91
2022-08-11T22:11:49.239Z,26.15
2022-08-11T22:17:29.389Z,26.61
2022-08-11T22:22:52.762Z,26.52
2022-08-11T22:28:14.693Z,26.69
2022-08-11T22:33:36.413Z,26.81
2022-08-11T22:39:05.366Z,26.77
2022-08-11T22:44:26.720Z,27.20
2022-08-11T22:49:57.455Z,27.30
2022-08-11T22:55:19.893Z,27.47
2022-08-11T23:00:40.276Z,27.54
2022-08-11T23:06:00.986Z,27.38
2022-08-11T23:11:26.277Z,27.55
2022-08-11T23:17:07.664Z,27.85
2022-08-11T23:22:36.839Z,27.72
2022-08-11T23:28:08.638Z,27.91
2022-08-11T23:33:31.874Z,28.11
2022-08-11T23:38:52.747Z,28.37
2022-08-11T23:44:13.064Z,28.71
2022-08-11T23:49:34.882Z,28.73
2022-08-11T23:54:56.328Z,28.76
